Time;durP1;ratioP1;P1;durP2;ratioP2;P2;SDS_P1;SDS_P2;PMS_P1;PMS_P2;Temp;Humidity;BMP_temperature;BMP_pressure;BME280_temperature;BME280_humidity;BME280_pressure;Samples;Min_cycle;Max_cycle;Signal;HPM_P1;HPM_P2
2022/03/18 00:02:08;;;;;;;224.70;11.55;;;3.70;99.90;;;;;;5047477;28;20118;-87
2022/03/18 00:04:34;;;;;;;22.63;3.17;;;3.70;99.90;;;;;;5025550;28;20493;-86
2022/03/18 00:07:00;;;;;;;31.63;3.30;;;3.60;99.90;;;;;;5071663;28;20103;-87
2022/03/18 00:09:26;;;;;;;7.88;2.30;;;3.60;99.90;;;;;;5070689;28;20630;-87
2022/03/18 00:11:52;;;;;;;8.32;2.30;;;4.00;99.90;;;;;;5039478;28;20133;-86
2022/03/18 00:14:19;;;;;;;16.17;3.10;;;3.40;99.90;;;;;;5064658;28;20131;-87
2022/03/18 00:16:45;;;;;;;32.90;4.10;;;3.40;99.90;;;;;;5052796;28;20048;-87
2022/03/18 00:19:11;;;;;;;10.57;3.63;;;3.40;99.90;;;;;;5045969;28;20056;-87
2022/03/18 00:21:37;;;;;;;14.18;5.05;;;3.50;99.90;;;;;;5071725;28;20105;-86
2022/03/18 00:24:04;;;;;;;14.68;4.57;;;3.30;99.90;;;;;;5044503;28;20048;-87
2022/03/18 00:26:30;;;;;;;13.65;4.45;;;3.30;99.90;;;;;;5051105;28;20056;-86
2022/03/18 00:28:55;;;;;;;;;;;3.50;99.90;;;;;;5035335;28;20089;-86
2022/03/18 00:31:21;;;;;;;11.68;3.90;;;3.40;99.90;;;;;;5057780;28;19963;-86
2022/03/18 00:33:47;;;;;;;11.27;4.13;;;3.50;99.90;;;;;;5071599;28;20084;-87
2022/03/18 00:36:13;;;;;;;11.82;4.05;;;4.40;99.90;;;;;;5028040;28;20037;-87
2022/03/18 00:38:39;;;;;;;10.80;4.35;;;3.70;99.90;;;;;;5068010;28;20080;-87
2022/03/18 00:41:05;;;;;;;14.15;5.32;;;3.70;99.90;;;;;;5051252;28;20552;-86
2022/03/18 00:43:31;;;;;;;14.75;5.60;;;4.30;99.90;;;;;;5062425;28;20063;-86
2022/03/18 00:45:57;;;;;;;15.38;4.68;;;3.80;99.90;;;;;;5054502;28;20056;-87
2022/03/18 00:53:53;;;;;;;10.30;4.63;;;3.40;99.90;;;;;;5056781;28;20049;-87
2022/03/18 00:56:19;;;;;;;16.58;4.93;;;4.20;99.90;;;;;;5070344;28;20481;-87
2022/03/18 00:58:45;;;;;;;11.10;4.93;;;4.10;99.90;;;;;;5053838;28;20039;-87
2022/03/18 01:01:11;;;;;;;12.77;5.43;;;3.80;99.90;;;;;;5048771;28;20048;-87
2022/03/18 01:03:36;;;;;;;;;;;4.50;99.90;;;;;;5049301;28;20051;-86
2022/03/18 01:06:02;;;;;;;15.98;6.30;;;3.60;99.90;;;;;;5050933;28;20011;-86
2022/03/18 01:08:28;;;;;;;16.75;6.85;;;3.40;99.90;;;;;;5017295;28;20102;-85
2022/03/18 01:10:54;;;;;;;15.23;6.47;;;3.70;99.90;;;;;;5034036;28;20057;-85
2022/03/18 01:13:20;;;;;;;;;;;3.30;99.90;;;;;;5033631;28;20056;-85
2022/03/18 01:15:47;;;;;;;12.32;6.13;;;4.00;99.90;;;;;;5050578;28;19920;-84
2022/03/18 01:18:12;;;;;;;14.45;6.20;;;3.80;99.90;;;;;;5033495;28;20493;-85
2022/03/18 01:20:38;;;;;;;13.95;5.93;;;3.30;99.90;;;;;;5050660;28;20044;-85
2022/03/18 01:23:06;;;;;;;17.50;6.45;;;3.90;99.90;;;;;;5017550;28;20048;-85
2022/03/18 01:25:32;;;;;;;16.77;5.85;;;3.30;99.90;;;;;;5033463;28;20085;-84
2022/03/18 01:27:58;;;;;;;14.50;6.28;;;3.30;99.90;;;;;;5033545;28;20068;-85
2022/03/18 01:30:24;;;;;;;13.88;5.75;;;3.90;99.90;;;;;;5050086;28;20053;-84
2022/03/18 01:32:50;;;;;;;15.68;6.07;;;3.30;99.90;;;;;;5049762;28;20043;-85
2022/03/18 01:35:15;;;;;;;15.60;6.40;;;3.60;99.90;;;;;;5016449;28;20493;-85
2022/03/18 01:37:41;;;;;;;15.05;5.90;;;3.30;99.90;;;;;;5049762;28;20562;-85
2022/03/18 01:40:07;;;;;;;12.63;6.03;;;3.30;99.90;;;;;;5032956;28;20076;-84
2022/03/18 01:42:33;;;;;;;;;;;3.30;99.90;;;;;;5033570;28;20148;-85
2022/03/18 01:44:58;;;;;;;11.70;5.50;;;3.30;99.90;;;;;;5050853;28;20015;-85
2022/03/18 01:47:24;;;;;;;26.85;6.57;;;3.30;99.90;;;;;;5050105;28;20106;-84
2022/03/18 01:49:50;;;;;;;33.10;6.03;;;3.30;99.90;;;;;;5050289;28;20048;-84
2022/03/18 01:52:16;;;;;;;510.33;27.73;;;3.70;99.90;;;;;;5033794;28;20045;-85
2022/03/18 01:54:44;;;;;;;332.02;19.05;;;3.20;99.90;;;;;;5033494;28;20383;-85
2022/03/18 01:57:11;;;;;;;251.50;15.93;;;3.50;99.90;;;;;;5033350;28;20081;-84
2022/03/18 01:59:37;;;;;;;124.65;8.73;;;3.10;99.90;;;;;;5033481;28;20051;-85
2022/03/18 02:02:04;;;;;;;10.40;5.22;;;3.00;99.90;;;;;;5017396;28;20060;-84
2022/03/18 02:04:30;;;;;;;12.80;4.70;;;3.00;99.90;;;;;;5049792;28;20052;-84
2022/03/18 02:06:56;;;;;;;8.93;4.35;;;3.50;99.90;;;;;;5017275;28;20068;-85
2022/03/18 02:09:22;;;;;;;14.10;5.47;;;3.10;99.90;;;;;;5048937;28;20158;-85
2022/03/18 02:11:48;;;;;;;13.20;4.50;;;2.80;99.90;;;;;;5046129;28;20860;-84
2022/03/18 02:14:14;;;;;;;;;;;2.70;99.90;;;;;;5036607;28;20037;-85
2022/03/18 02:16:40;;;;;;;30.42;5.15;;;2.60;99.90;;;;;;5052690;28;19924;-85
2022/03/18 02:19:09;;;;;;;11.57;4.47;;;2.70;99.90;;;;;;5053628;28;20044;-85
2022/03/18 02:21:40;;;;;;;10.20;3.70;;;3.00;99.90;;;;;;5069416;28;20053;-84
2022/03/18 02:24:05;;;;;;;11.30;4.15;;;2.80;99.90;;;;;;5036563;28;20682;-84
2022/03/18 02:26:32;;;;;;;136.65;8.95;;;2.60;99.90;;;;;;5069633;28;20102;-85
2022/03/18 02:28:58;;;;;;;35.20;4.65;;;2.50;99.90;;;;;;5071684;28;20049;-85
2022/03/18 02:31:31;;;;;;;7.93;3.75;;;2.50;99.90;;;;;;5040316;28;20051;-85
2022/03/18 02:33:57;;;;;;;9.18;3.80;;;2.50;99.90;;;;;;5060563;28;20041;-85
2022/03/18 02:36:23;;;;;;;12.52;4.68;;;3.30;99.90;;;;;;5036712;28;20036;-85
2022/03/18 02:38:48;;;;;;;11.93;4.15;;;3.10;99.90;;;;;;5066743;28;20075;-85
2022/03/18 02:41:14;;;;;;;11.35;4.72;;;2.40;99.90;;;;;;5039534;28;20128;-85
2022/03/18 02:43:40;;;;;;;12.55;4.32;;;2.60;99.90;;;;;;5036219;28;20049;-85
2022/03/18 02:46:06;;;;;;;10.20;4.45;;;3.00;99.90;;;;;;5037001;28;20229;-85
2022/03/18 02:48:31;;;;;;;13.38;5.00;;;2.30;99.90;;;;;;5052971;28;20143;-84
2022/03/18 02:50:57;;;;;;;13.10;4.55;;;2.30;99.90;;;;;;5036533;28;20091;-85
2022/03/18 02:53:23;;;;;;;12.02;5.32;;;2.70;99.90;;;;;;5062984;28;20055;-85
2022/03/18 02:55:48;;;;;;;12.30;4.43;;;2.20;99.90;;;;;;5039819;28;20186;-85
2022/03/18 02:58:14;;;;;;;12.35;4.05;;;2.20;99.90;;;;;;5039904;28;20048;-86
2022/03/18 03:00:40;;;;;;;12.88;4.93;;;2.20;99.90;;;;;;5039995;28;20549;-85
2022/03/18 03:03:06;;;;;;;13.68;4.90;;;2.70;99.90;;;;;;5072881;28;20048;-85
2022/03/18 03:08:15;;;;;;;15.00;5.25;;;2.10;99.90;;;;;;5073020;28;20139;-85
2022/03/18 03:10:43;;;;;;;13.45;5.07;;;2.10;99.90;;;;;;5055493;28;20131;-84
2022/03/18 03:13:10;;;;;;;12.45;4.75;;;2.50;99.90;;;;;;5056049;28;20520;-85
2022/03/18 03:15:38;;;;;;;11.95;5.15;;;2.10;99.90;;;;;;5051269;28;20041;-84
2022/03/18 03:18:05;;;;;;;15.25;5.20;;;2.00;99.90;;;;;;5077130;28;20044;-84
2022/03/18 03:20:32;;;;;;;16.00;5.85;;;2.50;99.90;;;;;;5055881;28;20057;-85
2022/03/18 03:22:58;;;;;;;17.40;5.78;;;1.90;99.90;;;;;;5056128;28;20071;-85
2022/03/18 03:25:24;;;;;;;16.88;5.75;;;2.20;99.90;;;;;;5056139;28;20470;-85
2022/03/18 03:27:53;;;;;;;14.23;5.38;;;1.90;99.90;;;;;;5046800;28;20045;-84
2022/03/18 03:30:19;;;;;;;11.40;5.03;;;1.80;99.90;;;;;;5036358;28;20059;-84
2022/03/18 03:32:45;;;;;;;12.88;5.10;;;1.80;99.90;;;;;;5035588;28;20088;-85
2022/03/18 03:35:11;;;;;;;18.48;5.70;;;1.80;99.90;;;;;;5020096;28;20143;-85
2022/03/18 03:37:37;;;;;;;16.00;5.72;;;1.70;99.90;;;;;;5035258;28;20041;-86
2022/03/18 03:40:04;;;;;;;18.20;6.13;;;1.70;99.90;;;;;;5042700;28;20049;-86
2022/03/18 03:42:30;;;;;;;15.48;5.13;;;1.70;99.90;;;;;;5051816;28;20045;-86
2022/03/18 03:44:55;;;;;;;16.10;5.85;;;1.80;99.90;;;;;;5052681;28;20099;-85
2022/03/18 03:47:21;;;;;;;13.77;5.68;;;1.80;99.90;;;;;;5067068;28;20128;-85
2022/03/18 03:49:47;;;;;;;19.33;6.38;;;1.80;99.90;;;;;;5051872;28;20137;-86
2022/03/18 03:52:13;;;;;;;15.75;6.22;;;1.80;99.90;;;;;;5052591;28;20049;-85
2022/03/18 03:54:40;;;;;;;14.88;6.20;;;2.50;99.90;;;;;;5068103;28;20524;-86
2022/03/18 03:57:07;;;;;;;16.77;6.53;;;2.30;99.90;;;;;;5051689;28;20449;-85
2022/03/18 03:59:33;;;;;;;14.48;6.40;;;2.90;99.90;;;;;;5052087;28;20048;-85
2022/03/18 04:01:59;;;;;;;20.17;6.30;;;2.70;99.90;;;;;;5068508;28;20068;-86
2022/03/18 04:04:26;;;;;;;;;;;2.50;99.90;;;;;;5071630;28;20107;-85
2022/03/18 04:06:52;;;;;;;15.77;6.43;;;1.90;99.90;;;;;;5072098;28;20011;-85
2022/03/18 04:09:18;;;;;;;16.98;5.78;;;1.90;99.90;;;;;;5055035;28;20410;-85
2022/03/18 04:11:44;;;;;;;14.25;5.75;;;2.80;99.90;;;;;;5054763;28;20060;-86
2022/03/18 04:14:09;;;;;;;14.00;6.13;;;2.00;99.90;;;;;;5055196;28;20045;-85
2022/03/18 04:16:35;;;;;;;15.05;5.72;;;2.00;99.90;;;;;;5071376;28;20045;-86
2022/03/18 04:19:03;;;;;;;16.50;5.85;;;2.00;99.90;;;;;;5055325;28;20052;-86
2022/03/18 04:21:29;;;;;;;20.27;6.78;;;2.10;99.90;;;;;;5069843;28;20055;-85
2022/03/18 04:23:54;;;;;;;;;;;3.00;99.90;;;;;;5061214;28;20048;-86
2022/03/18 04:26:20;;;;;;;15.70;6.40;;;2.70;99.90;;;;;;5038946;28;20376;-86
2022/03/18 04:28:46;;;;;;;14.25;6.72;;;2.50;99.90;;;;;;5054383;28;20101;-86
2022/03/18 04:31:12;;;;;;;17.40;6.20;;;2.00;99.90;;;;;;5055381;28;20795;-85
2022/03/18 04:33:38;;;;;;;16.65;5.78;;;2.00;99.90;;;;;;5038496;28;20166;-85
2022/03/18 04:36:04;;;;;;;11.98;5.35;;;2.60;99.90;;;;;;5055367;28;20044;-86
2022/03/18 04:38:30;;;;;;;13.75;6.05;;;2.00;99.90;;;;;;5038399;28;20588;-86
2022/03/18 04:40:55;;;;;;;26.13;6.95;;;2.30;99.90;;;;;;5052893;28;20032;-85
2022/03/18 04:43:21;;;;;;;17.40;6.65;;;1.90;99.90;;;;;;5054601;28;20067;-85
2022/03/18 04:45:47;;;;;;;17.02;6.88;;;1.90;99.90;;;;;;5054621;28;20131;-85
2022/03/18 04:48:13;;;;;;;15.90;6.20;;;1.90;99.90;;;;;;5054688;28;20106;-86
2022/03/18 04:50:39;;;;;;;23.15;6.25;;;3.20;99.90;;;;;;5038162;28;20098;-86
2022/03/18 04:53:04;;;;;;;13.30;5.28;;;1.80;99.90;;;;;;5053813;28;20040;-86
2022/03/18 04:55:30;;;;;;;18.83;8.50;;;1.80;99.90;;;;;;5054710;28;20298;-86
2022/03/18 04:57:56;;;;;;;17.52;5.82;;;1.80;99.90;;;;;;5053720;28;20052;-87
2022/03/18 05:00:24;;;;;;;14.13;6.10;;;2.30;99.90;;;;;;5037913;28;20477;-86
2022/03/18 05:02:55;;;;;;;17.42;6.57;;;2.60;99.90;;;;;;5071071;28;20056;-86
2022/03/18 05:05:21;;;;;;;51.80;7.43;;;2.30;99.90;;;;;;5055273;28;20131;-86
2022/03/18 05:07:49;;;;;;;97.45;9.85;;;1.70;99.90;;;;;;5070498;28;20049;-87
2022/03/18 05:10:15;;;;;;;12.43;5.72;;;2.30;99.90;;;;;;5070826;28;20056;-87
2022/03/18 05:12:41;;;;;;;;;;;1.60;99.90;;;;;;5054132;28;20070;-88
2022/03/18 05:15:10;;;;;;;15.13;6.50;;;1.70;99.90;;;;;;5054713;28;19924;-88
2022/03/18 05:17:37;;;;;;;26.75;6.93;;;1.70;99.90;;;;;;5070027;28;20044;-87
2022/03/18 05:20:04;;;;;;;54.25;8.32;;;1.60;99.90;;;;;;5070707;28;20040;-87
2022/03/18 05:22:31;;;;;;;10.57;6.22;;;1.60;99.90;;;;;;5053605;28;20401;-88
2022/03/18 05:24:58;;;;;;;30.38;6.40;;;1.60;99.90;;;;;;5070398;28;20205;-88
2022/03/18 05:27:24;;;;;;;348.65;23.00;;;2.20;99.90;;;;;;5053653;28;20088;-88
2022/03/18 05:29:51;;;;;;;18.50;5.45;;;1.60;99.90;;;;;;5070614;28;20393;-87
2022/03/18 05:32:17;;;;;;;10.82;5.80;;;1.60;99.90;;;;;;5037650;28;20478;-87
2022/03/18 05:34:43;;;;;;;15.88;6.75;;;1.60;99.90;;;;;;5053061;28;20543;-87
2022/03/18 05:37:09;;;;;;;14.18;6.43;;;1.90;99.90;;;;;;5050179;28;20041;-87
2022/03/18 05:39:35;;;;;;;15.68;7.10;;;2.60;99.90;;;;;;5053803;28;20114;-88
2022/03/18 05:42:01;;;;;;;17.10;7.60;;;2.10;99.90;;;;;;5069674;28;20051;-87
2022/03/18 05:44:27;;;;;;;15.55;7.57;;;1.50;99.90;;;;;;5066414;28;20048;-88
2022/03/18 05:46:52;;;;;;;17.98;6.82;;;1.50;99.90;;;;;;5037496;28;20087;-87
2022/03/18 05:49:18;;;;;;;20.10;7.15;;;2.10;99.90;;;;;;5034318;28;20136;-87
2022/03/18 05:51:45;;;;;;;24.13;7.65;;;2.20;99.90;;;;;;5033913;28;20049;-87
2022/03/18 05:54:11;;;;;;;18.00;7.70;;;1.40;99.90;;;;;;5033968;28;20170;-88
2022/03/18 05:56:53;;;;;;;;;;;1.50;99.90;;;;;;5050884;28;20053;-87
2022/03/18 05:59:30;;;;;;;22.10;7.32;;;1.50;99.90;;;;;;5050732;28;20421;-88
2022/03/18 06:01:59;;;;;;;22.23;8.18;;;2.10;99.90;;;;;;5050210;28;20048;-88
2022/03/18 06:04:25;;;;;;;21.08;8.68;;;1.50;99.90;;;;;;5033580;28;20156;-88
2022/03/18 06:06:51;;;;;;;13.02;6.65;;;2.10;99.90;;;;;;5050481;28;20052;-88
2022/03/18 06:12:03;;;;;;;15.02;7.57;;;2.00;99.90;;;;;;5050410;28;20114;-89
2022/03/18 06:14:30;;;;;;;14.50;6.72;;;1.50;99.90;;;;;;5034697;28;20045;-88
2022/03/18 06:17:01;;;;;;;15.00;7.15;;;2.10;99.90;;;;;;5050480;28;20455;-88
2022/03/18 06:19:28;;;;;;;24.55;7.25;;;1.50;99.90;;;;;;5051205;28;20140;-88
2022/03/18 06:21:54;;;;;;;18.05;6.68;;;2.00;99.90;;;;;;5034272;28;20052;-86
2022/03/18 06:24:21;;;;;;;20.08;7.30;;;1.60;99.90;;;;;;5018682;28;20052;-86
2022/03/18 06:26:48;;;;;;;18.70;7.35;;;2.50;99.90;;;;;;5036544;28;20082;-86
2022/03/18 06:29:13;;;;;;;20.85;7.72;;;1.60;99.90;;;;;;5070978;28;20044;-86
2022/03/18 06:31:39;;;;;;;15.93;6.78;;;2.40;99.90;;;;;;5054106;28;20143;-86
2022/03/18 06:34:07;;;;;;;16.73;7.88;;;2.00;99.90;;;;;;5070274;28;20051;-86
2022/03/18 06:36:32;;;;;;;15.70;7.50;;;1.70;99.90;;;;;;5070673;28;20124;-85
2022/03/18 06:38:58;;;;;;;18.63;7.40;;;1.70;99.90;;;;;;5053501;28;20128;-86
2022/03/18 06:41:25;;;;;;;16.67;7.88;;;2.40;99.90;;;;;;5053911;28;20075;-89
2022/03/18 06:43:51;;;;;;;19.45;7.88;;;1.80;99.90;;;;;;5070180;28;20542;-89
2022/03/18 06:46:18;;;;;;;20.80;8.52;;;1.80;99.90;;;;;;5052457;28;20128;-88
2022/03/18 06:48:44;;;;;;;18.17;7.57;;;2.90;99.90;;;;;;5054204;28;20040;-90
2022/03/18 06:51:10;;;;;;;;;;;1.90;99.90;;;;;;5072340;28;20048;-91
2022/03/18 06:53:36;;;;;;;16.23;7.50;;;3.20;99.90;;;;;;5059014;28;20007;-90
2022/03/18 06:56:04;;;;;;;24.10;8.15;;;2.80;99.90;;;;;;5017924;28;20183;-90
2022/03/18 06:58:33;;;;;;;15.13;7.82;;;2.10;99.90;;;;;;5051461;28;20045;-90
2022/03/18 07:00:59;;;;;;;18.67;8.65;;;3.50;99.90;;;;;;5034137;28;20051;-90
2022/03/18 07:03:25;;;;;;;18.13;7.50;;;3.30;99.90;;;;;;5045247;28;20127;-90
2022/03/18 07:05:50;;;;;;;19.17;8.88;;;3.90;99.90;;;;;;5054317;28;20055;-90
2022/03/18 07:08:16;;;;;;;20.45;8.98;;;2.90;99.90;;;;;;5070978;28;20052;-90
2022/03/18 07:10:42;;;;;;;20.67;9.52;;;2.90;99.90;;;;;;5034388;28;20510;-90
2022/03/18 07:13:08;;;;;;;24.17;9.40;;;3.00;99.90;;;;;;5033974;28;20122;-89
2022/03/18 07:15:34;;;;;;;22.27;10.10;;;3.90;99.90;;;;;;5052428;28;20053;-88
2022/03/18 07:18:03;;;;;;;24.38;8.98;;;3.60;99.90;;;;;;5038293;28;20159;-91
2022/03/18 07:20:32;;;;;;;22.67;9.45;;;3.10;99.90;;;;;;5056292;28;20503;-89
2022/03/18 07:23:12;;;;;;;20.05;8.93;;;4.00;99.90;;;;;;5059141;28;20048;-89
2022/03/18 07:25:41;;;;;;;21.83;9.07;;;3.70;99.90;;;;;;5038525;28;20076;-92
2022/03/18 07:28:08;;;;;;;19.42;8.95;;;3.50;99.90;;;;;;5060701;28;20032;-94
2022/03/18 07:30:35;;;;;;;28.00;10.10;;;3.00;99.90;;;;;;5058733;28;20044;-92
2022/03/18 07:33:01;;;;;;;23.42;9.10;;;3.30;99.90;;;;;;5041695;28;20060;-94
2022/03/18 07:35:27;;;;;;;21.05;9.63;;;2.60;99.90;;;;;;5039040;28;20160;-94
2022/03/18 07:37:53;;;;;;;19.02;9.57;;;3.10;99.90;;;;;;5038109;28;20041;-92
2022/03/18 07:40:19;;;;;;;25.40;10.18;;;4.40;99.90;;;;;;5038073;28;20067;-93
2022/03/18 07:42:51;;;;;;;23.25;10.15;;;2.10;99.90;;;;;;5037520;28;20049;-90
2022/03/18 07:45:28;;;;;;;24.95;10.27;;;3.30;99.90;;;;;;5074134;28;20470;-92
2022/03/18 07:47:55;;;;;;;24.38;9.75;;;3.40;99.90;;;;;;5041279;28;20110;-91
2022/03/18 07:50:23;;;;;;;20.25;9.02;;;3.60;99.90;;;;;;5057474;28;20048;-92
2022/03/18 07:52:57;;;;;;;26.13;11.10;;;4.20;99.90;;;;;;5053299;28;20549;-88
2022/03/18 07:55:26;;;;;;;27.85;11.55;;;4.40;99.90;;;;;;5045738;28;20044;-90
2022/03/18 07:57:53;;;;;;;25.23;10.52;;;4.10;99.90;;;;;;5035837;28;20123;-88
2022/03/18 08:00:19;;;;;;;25.08;11.25;;;4.40;99.90;;;;;;5040208;28;20056;-90
2022/03/18 08:02:49;;;;;;;24.40;11.30;;;3.70;99.90;;;;;;5054085;28;20044;-89
2022/03/18 08:05:15;;;;;;;28.75;11.70;;;4.30;99.90;;;;;;5046963;28;20051;-90
2022/03/18 08:07:42;;;;;;;24.48;11.00;;;4.60;99.90;;;;;;5056769;28;20246;-92
2022/03/18 08:10:09;;;;;;;22.33;10.50;;;3.90;99.90;;;;;;5055552;28;20056;-90
2022/03/18 08:12:37;;;;;;;23.40;10.95;;;4.00;99.90;;;;;;5038567;28;20045;-90
2022/03/18 08:15:09;;;;;;;23.17;10.18;;;4.80;99.90;;;;;;5043142;28;20102;-91
2022/03/18 08:17:34;;;;;;;27.00;10.70;;;4.10;99.90;;;;;;5036571;28;20041;-94
2022/03/18 08:20:01;;;;;;;23.20;10.80;;;5.10;99.90;;;;;;5046616;28;20127;-88
2022/03/18 08:22:27;;;;;;;30.75;10.27;;;4.90;99.90;;;;;;5080613;28;20045;-89
2022/03/18 08:24:53;;;;;;;33.25;11.02;;;4.30;99.90;;;;;;5082035;28;20040;-88
2022/03/18 08:27:19;;;;;;;24.65;12.38;;;4.40;99.90;;;;;;5054579;28;20088;-91
2022/03/18 08:29:48;;;;;;;21.80;11.40;;;5.00;99.90;;;;;;5032363;28;20045;-94
2022/03/18 08:32:17;;;;;;;27.40;11.10;;;4.60;99.90;;;;;;5060845;28;20436;-91
2022/03/18 08:34:46;;;;;;;20.73;10.43;;;5.10;99.90;;;;;;5062597;28;20048;-92
2022/03/18 08:37:12;;;;;;;23.98;11.45;;;4.00;99.90;;;;;;5061852;28;20108;-93
2022/03/18 08:39:41;;;;;;;20.67;10.88;;;5.40;99.90;;;;;;5068795;28;20043;-94
2022/03/18 08:42:07;;;;;;;28.00;11.43;;;4.90;99.90;;;;;;5024979;28;20057;-92
2022/03/18 08:44:33;;;;;;;26.45;11.50;;;5.20;99.90;;;;;;5046532;28;20045;-93
2022/03/18 08:47:02;;;;;;;26.98;11.75;;;6.30;99.90;;;;;;5040893;28;20475;-94
2022/03/18 08:49:28;;;;;;;29.80;12.00;;;5.00;99.90;;;;;;5049553;28;20052;-93
2022/03/18 08:51:57;;;;;;;26.70;12.55;;;6.50;99.90;;;;;;5056755;28;20044;-90
2022/03/18 08:54:23;;;;;;;29.33;12.45;;;5.90;99.90;;;;;;5051204;28;20048;-93
2022/03/18 08:56:49;;;;;;;32.15;12.65;;;5.20;99.90;;;;;;5035559;28;20045;-93
2022/03/18 08:59:15;;;;;;;26.38;12.18;;;6.40;99.90;;;;;;5036542;28;20048;-95
2022/03/18 09:01:40;;;;;;;25.58;13.00;;;5.10;99.90;;;;;;5023497;28;20139;-94
2022/03/18 09:04:14;;;;;;;25.65;12.10;;;6.20;99.90;;;;;;5073656;28;20059;-94
2022/03/18 09:06:44;;;;;;;25.23;12.65;;;5.60;99.90;;;;;;5056101;28;20067;-92
2022/03/18 09:09:26;;;;;;;31.58;12.73;;;4.70;99.90;;;;;;5064648;28;20061;-95
2022/03/18 09:12:07;;;;;;;26.88;12.57;;;6.00;99.90;;;;;;5076461;28;20057;-89
2022/03/18 09:14:39;;;;;;;26.65;13.02;;;5.90;99.90;;;;;;5053788;28;20051;-95
2022/03/18 09:19:57;;;;;;;24.27;12.90;;;6.20;99.90;;;;;;5263007;22;20180;31
2022/03/18 09:22:22;;;;;;;26.38;12.95;;;6.40;99.90;;;;;;4994358;28;20081;-86
2022/03/18 09:24:49;;;;;;;31.65;13.35;;;6.50;99.90;;;;;;4988014;28;20014;-93
2022/03/18 09:27:16;;;;;;;33.45;14.50;;;6.80;99.90;;;;;;5027759;28;20039;-94
2022/03/18 09:29:42;;;;;;;28.92;13.85;;;6.70;99.90;;;;;;5017426;28;20108;-90
2022/03/18 09:32:10;;;;;;;;;;;6.90;99.90;;;;;;5129279;22;20112;-94
2022/03/18 09:34:39;;;;;;;27.75;13.60;;;7.50;99.90;;;;;;5036196;28;19920;-93
2022/03/18 09:37:11;;;;;;;26.52;14.32;;;7.10;99.90;;;;;;5008275;28;20037;-95
2022/03/18 09:40:00;;;;;;;30.25;14.77;;;7.10;99.90;;;;;;5019425;28;20044;-91
2022/03/18 09:48:12;;;;;;;27.70;13.45;;;8.30;99.90;;;;;;4620275;23;20373;-88
2022/03/18 09:51:05;;;;;;;27.38;13.95;;;7.50;99.90;;;;;;4934622;29;20044;-92
2022/03/18 09:53:59;;;;;;;28.42;13.38;;;7.70;99.90;;;;;;4923763;29;20064;-94
2022/03/18 09:56:25;;;;;;;36.00;15.73;;;7.90;99.90;;;;;;4900535;29;20107;-94
2022/03/18 09:58:51;;;;;;;30.35;14.80;;;8.20;99.90;;;;;;4891354;29;20053;-95
2022/03/18 10:01:17;;;;;;;35.53;15.35;;;8.90;99.90;;;;;;4898515;29;20048;-90
2022/03/18 10:03:44;;;;;;;27.48;14.10;;;8.20;99.90;;;;;;4913061;29;20749;-84
2022/03/18 10:06:11;;;;;;;30.85;14.77;;;8.40;99.90;;;;;;4899039;29;20040;-93
2022/03/18 10:08:37;;;;;;;25.85;13.40;;;8.50;99.90;;;;;;4916137;29;20450;-95
2022/03/18 10:11:34;;;;;;;32.78;14.23;;;8.60;99.90;;;;;;4916556;29;20135;-94
2022/03/18 10:14:28;;;;;;;32.90;14.52;;;8.70;99.90;;;;;;4903430;29;20075;-91
2022/03/18 10:17:21;;;;;;;;;;;;;;;;;;;;;
2022/03/18 10:20:55;;;;;;;25.40;13.15;;;8.90;99.90;;;;;;4932626;29;20048;-95
2022/03/18 10:26:42;;;;;;;26.70;12.82;;;9.20;99.90;;;;;;4936814;29;20076;-92
2022/03/18 10:29:48;;;;;;;29.00;13.15;;;9.40;99.90;;;;;;4904115;29;20035;-95
2022/03/18 10:32:54;;;;;;;;;;;;;;;;;;;;;
2022/03/18 10:38:41;;;;;;;21.13;11.57;;;9.60;99.90;;;;;;4928266;29;20056;-96
2022/03/18 10:41:47;;;;;;;27.15;11.95;;;9.70;99.90;;;;;;4896670;29;20054;-94
2022/03/18 10:44:34;;;;;;;;;;;;;;;;;;;;;
2022/03/18 10:47:36;;;;;;;30.02;12.60;;;9.80;99.90;;;;;;4899285;29;20076;-92
2022/03/18 10:50:31;;;;;;;;;;;;;;;;;;;;;
2022/03/18 10:53:41;;;;;;;;;;;;;;;;;;;;;
2022/03/18 10:59:38;;;;;;;28.65;12.75;;;10.50;99.90;;;;;;4885635;29;20087;-93
2022/03/18 11:08:21;;;;;;;22.42;9.18;;;10.90;99.90;;;;;;5460021;23;20062;-93
2022/03/18 11:11:17;;;;;;;16.90;8.70;;;11.10;99.90;;;;;;4970600;28;20098;-94
2022/03/18 11:22:04;;;;;;;24.75;10.93;;;11.80;99.90;;;;;;4918390;29;20064;-92
2022/03/18 11:25:06;;;;;;;;;;;;;;;;;;;;;
2022/03/18 11:27:51;;;;;;;;;;;;;;;;;;;;;
2022/03/18 11:30:47;;;;;;;22.75;8.93;;;12.20;99.90;;;;;;4904730;29;20130;-90
2022/03/18 11:36:42;;;;;;;21.20;7.80;;;12.40;99.90;;;;;;5301649;23;20025;-93
2022/03/18 11:39:41;;;;;;;;;;;;;;;;;;;;;
2022/03/18 11:45:46;;;;;;;14.20;7.13;;;12.90;99.90;;;;;;4869140;29;20060;-96
2022/03/18 11:48:56;;;;;;;;;;;;;;;;;;;;;
2022/03/18 11:52:43;;;;;;;18.23;7.40;;;13.60;99.90;;;;;;4882874;29;20073;-94
2022/03/18 11:55:00;;;;;;;13.52;6.45;;;13.80;99.90;;;;;;4849617;29;20060;-95
2022/03/18 11:57:43;;;;;;;23.33;8.90;;;14.00;99.90;;;;;;4873751;29;20073;-95
2022/03/18 12:00:29;;;;;;;17.35;8.13;;;14.40;99.90;;;;;;4855708;29;20133;-88
2022/03/18 12:02:55;;;;;;;16.70;7.93;;;14.40;99.90;;;;;;4876245;29;20045;-90
2022/03/18 12:05:21;;;;;;;15.60;8.25;;;14.60;99.90;;;;;;4879784;29;20071;-95
2022/03/18 12:07:48;;;;;;;16.20;6.95;;;14.80;99.90;;;;;;4870406;29;20071;-95
2022/03/18 12:10:30;;;;;;;15.23;7.55;;;15.10;99.90;;;;;;4868154;29;20095;-94
2022/03/18 12:12:59;;;;;;;15.90;5.78;;;15.40;99.90;;;;;;4883466;29;20094;-93
2022/03/18 12:15:27;;;;;;;14.45;5.53;;;15.70;99.90;;;;;;4867894;29;20088;-93
2022/03/18 12:17:59;;;;;;;11.30;5.45;;;16.10;99.90;;;;;;4883141;29;20100;-95
2022/03/18 12:20:33;;;;;;;12.23;5.50;;;16.40;99.90;;;;;;4867997;29;20059;-96
2022/03/18 12:23:06;;;;;;;14.25;5.30;;;16.70;99.90;;;;;;4868335;29;20055;-95
2022/03/18 12:25:40;;;;;;;12.98;5.53;;;16.80;99.90;;;;;;4883107;29;20128;-95
2022/03/18 12:28:09;;;;;;;11.13;4.82;;;17.00;99.90;;;;;;4883480;29;20097;-95
2022/03/18 12:30:38;;;;;;;11.73;5.10;;;16.90;99.90;;;;;;4867707;29;20143;-94
2022/03/18 12:33:11;;;;;;;10.73;4.95;;;16.80;99.90;;;;;;4882714;29;20047;-95
2022/03/18 12:35:43;;;;;;;11.75;4.55;;;16.80;99.90;;;;;;4868053;29;20523;-95
2022/03/18 12:38:17;;;;;;;12.27;4.50;;;16.60;99.20;;;;;;4867497;29;20486;-89
2022/03/18 12:40:58;;;;;;;9.07;2.65;;;16.50;98.20;;;;;;4866292;29;20410;-88
2022/03/18 12:43:29;;;;;;;10.07;3.00;;;16.60;98.00;;;;;;4874774;29;20051;-91
2022/03/18 12:45:55;;;;;;;9.48;2.90;;;17.10;97.90;;;;;;4902244;29;20054;-92
2022/03/18 12:48:24;;;;;;;9.65;2.85;;;17.60;94.60;;;;;;4878061;29;20052;-91
2022/03/18 12:50:57;;;;;;;9.77;2.55;;;18.00;91.10;;;;;;4867978;29;20052;-93
2022/03/18 12:53:37;;;;;;;10.73;2.90;;;18.40;87.20;;;;;;4883428;29;20055;-93
2022/03/18 12:56:32;;;;;;;11.77;3.25;;;18.50;81.20;;;;;;4868030;29;20100;-93
2022/03/18 12:59:01;;;;;;;7.07;2.70;;;18.50;81.30;;;;;;4867735;29;20093;-92
2022/03/18 13:01:34;;;;;;;10.13;2.92;;;18.80;79.50;;;;;;4867719;29;20089;-93
2022/03/18 13:04:03;;;;;;;7.78;2.42;;;19.10;76.30;;;;;;4868899;29;20076;-94
2022/03/18 13:06:56;;;;;;;11.23;2.95;;;19.30;75.10;;;;;;4867788;29;20049;-94
2022/03/18 13:09:40;;;;;;;8.43;2.70;;;19.60;74.00;;;;;;4879188;29;20110;-93
2022/03/18 13:12:37;;;;;;;11.18;2.72;;;19.70;70.00;;;;;;4864561;29;20084;-93
2022/03/18 13:15:32;;;;;;;10.20;3.40;;;19.50;69.80;;;;;;4863733;29;20056;-94
2022/03/18 13:18:26;;;;;;;10.65;3.58;;;19.80;68.50;;;;;;4846952;29;20057;-93
2022/03/18 13:20:59;;;;;;;7.57;2.58;;;20.30;70.60;;;;;;4864751;29;20045;-92
2022/03/18 13:23:28;;;;;;;8.95;2.80;;;20.80;66.20;;;;;;4872108;29;20391;-95
2022/03/18 13:26:10;;;;;;;;;;;;;;;;;;;;;
2022/03/18 13:28:39;;;;;;;16.33;3.60;;;21.00;64.20;;;;;;4875218;29;20049;-94
2022/03/18 13:34:05;;;;;;;8.95;2.80;;;21.50;62.00;;;;;;4880772;29;20058;-94
2022/03/18 13:36:51;;;;;;;9.75;3.08;;;21.70;61.20;;;;;;4884523;29;20258;-95
2022/03/18 13:39:26;;;;;;;7.15;2.85;;;21.60;58.60;;;;;;4892962;29;20066;-94
2022/03/18 13:41:59;;;;;;;10.88;3.20;;;20.60;57.10;;;;;;4854299;29;20056;-92
2022/03/18 13:44:31;;;;;;;13.10;3.63;;;19.60;58.50;;;;;;4865044;29;20049;-94
2022/03/18 13:47:03;;;;;;;10.88;3.78;;;18.90;60.60;;;;;;4871184;29;20512;-93
2022/03/18 13:49:35;;;;;;;11.57;3.55;;;18.90;62.40;;;;;;4862671;29;20061;-92
2022/03/18 13:52:16;;;;;;;8.85;3.38;;;18.80;61.30;;;;;;4855827;29;20048;-92
2022/03/18 13:54:55;;;;;;;11.55;3.33;;;19.00;60.70;;;;;;4880092;29;20409;-92
2022/03/18 13:57:21;;;;;;;8.57;3.10;;;19.40;60.70;;;;;;4862958;29;20657;-91
2022/03/18 13:59:53;;;;;;;;;;;19.70;60.20;;;;;;4861947;29;20103;-92
2022/03/18 14:02:28;;;;;;;9.88;3.95;;;19.50;61.80;;;;;;4898769;29;19931;-92
2022/03/18 14:04:58;;;;;;;10.88;3.70;;;19.70;61.80;;;;;;4901065;29;20398;-91
2022/03/18 14:07:48;;;;;;;12.15;3.83;;;20.50;61.00;;;;;;4885233;29;20102;-92
2022/03/18 14:10:18;;;;;;;12.82;3.78;;;21.40;60.30;;;;;;4879304;29;20048;-92